Bayard, NE (69334)

2:58 AM MDT on October 24, 2014 (GMT -0600)
Bridgeport Ampride/Panhandle Coop | Change Station
CLOSE
Current Station
Personal Weather Station
Location: Bridgeport, NE
Elevation: 3671 ft
Nearby Weather Stations

Elev 3671 ft 41.67 °N, 103.10 °W | Updated 10 minutes ago

Clear
Clear
43.9 °F
Feels Like 44 °F
N
0.0
Wind Variable Wind from ESE
Gusts 0.0 mph

Today
High -- | Low -- °F
--% Chance of Precip.
Yesterday
High -- | Low -- °F
Precip. -- in
7:15 AM 5:58 PM
New Moon, 0% visible
Pressure 29.93 in
Visibility 10.0 miles
Clouds Clear
Windchill 44 °F
Dew Point 38 °F
Humidity 79%
Rainfall 0.00 in
Snow Depth Not available.
UV 0 out of 12
Pollen 2.10 out of 12
Air Quality Not available.
Flu Activity Sporadic
METAR KBFF 240853Z AUTO 00000KT 10SM CLR 07/03 A3001 RMK AO2 SLP133 T00720033 57002

More Conditions Fewer Conditions

Pressure 29.93 in
Visibility 10.0 miles
Clouds Clear
Windchill 44 °F
Dew Point 38 °F
Humidity 79%
Rainfall 0.00 in
Snow Depth Not available.
UV 0 out of 12
Pollen 2.10 out of 12
Air Quality Not available.
Flu Activity Sporadic
METAR KBFF 240853Z AUTO 00000KT 10SM CLR 07/03 A3001 RMK AO2 SLP133 T00720033 57002

More Conditions Fewer Conditions

10-Day Weather Forecast

Almanac

Astronomy

Oct. 24, 2014 Rise Set
Actual Time 7:15 AM MDT 5:58 PM MDT
Civil Twilight 6:47 AM MDT 6:26 PM MDT
Nautical Twilight 6:14 AM MDT 6:59 PM MDT
Astronomical Twilight 5:42 AM MDT 7:31 PM MDT
Moon 7:57 AM MDT 6:39 PM MDT
Length of Visible Light 11h 39m
Length of Day
10h 42m
Tomorrow will be 2m 35s shorter.
New Moon, 0% of the Moon is Illuminated
Today
New Moon
Oct 30
First Quarter
Nov 6
Full
Nov 14
Last Quarter
Nov 22
New

Today's Extremes

State Highs State Lows

Community

WunderPhotos

Upload Photos

1,764,511 photos uploaded!

WunderBlogs® & News

Nearby

Snow Depth

Station Depth Elevation
No new snow has been reported.

Earthquake Activity

City Distance Mag. Time & Date
No recent earthquake activity has been reported nearby.
Minimum magnitude displayed is 2.5.

Coastal Water Temperatures

Place Temperature
No Stations Reporting

Nearby Weather Stations